sensor_id;sensor_type;location;lat;lon;timestamp;temperature;humidity
10278;DHT22;5184;51.376;7.148;2023-05-29T00:01:24;13.90;99.90
10278;DHT22;5184;51.376;7.148;2023-05-29T00:03:51;13.90;99.90
10278;DHT22;5184;51.376;7.148;2023-05-29T00:06:19;13.80;99.90
10278;DHT22;5184;51.376;7.148;2023-05-29T00:08:46;13.80;99.90
10278;DHT22;5184;51.376;7.148;2023-05-29T00:11:12;13.70;99.90
10278;DHT22;5184;51.376;7.148;2023-05-29T00:13:40;13.70;99.90
10278;DHT22;5184;51.376;7.148;2023-05-29T00:16:07;13.60;99.90
10278;DHT22;5184;51.376;7.148;2023-05-29T00:18:34;13.60;99.90
10278;DHT22;5184;51.376;7.148;2023-05-29T00:21:01;13.60;99.90
10278;DHT22;5184;51.376;7.148;2023-05-29T00:23:28;13.50;99.90
10278;DHT22;5184;51.376;7.148;2023-05-29T00:25:56;13.50;99.90
10278;DHT22;5184;51.376;7.148;2023-05-29T00:28:22;13.40;99.90
10278;DHT22;5184;51.376;7.148;2023-05-29T00:30:49;13.40;1.00
10278;DHT22;5184;51.376;7.148;2023-05-29T00:33:16;13.40;1.00
10278;DHT22;5184;51.376;7.148;2023-05-29T00:35:42;13.40;1.00
10278;DHT22;5184;51.376;7.148;2023-05-29T00:38:09;13.30;1.00
10278;DHT22;5184;51.376;7.148;2023-05-29T00:40:36;13.30;1.00
10278;DHT22;5184;51.376;7.148;2023-05-29T00:43:03;13.20;1.00
10278;DHT22;5184;51.376;7.148;2023-05-29T00:45:31;13.20;1.00
10278;DHT22;5184;51.376;7.148;2023-05-29T00:47:58;13.20;1.00
10278;DHT22;5184;51.376;7.148;2023-05-29T00:50:25;13.10;1.00
10278;DHT22;5184;51.376;7.148;2023-05-29T00:52:53;13.10;99.90
10278;DHT22;5184;51.376;7.148;2023-05-29T00:55:20;13.00;99.90
10278;DHT22;5184;51.376;7.148;2023-05-29T00:57:47;13.00;99.90
10278;DHT22;5184;51.376;7.148;2023-05-29T01:00:13;13.00;99.90
10278;DHT22;5184;51.376;7.148;2023-05-29T01:02:41;12.90;1.00
10278;DHT22;5184;51.376;7.148;2023-05-29T01:05:08;12.80;1.00
10278;DHT22;5184;51.376;7.148;2023-05-29T01:07:35;12.80;1.00
10278;DHT22;5184;51.376;7.148;2023-05-29T01:10:02;12.80;1.00
10278;DHT22;5184;51.376;7.148;2023-05-29T01:12:49;12.80;99.90
10278;DHT22;5184;51.376;7.148;2023-05-29T01:15:21;12.70;99.90
10278;DHT22;5184;51.376;7.148;2023-05-29T01:17:54;12.70;1.00
10278;DHT22;5184;51.376;7.148;2023-05-29T01:20:35;12.60;1.00
10278;DHT22;5184;51.376;7.148;2023-05-29T01:23:07;12.60;11.30
10278;DHT22;5184;51.376;7.148;2023-05-29T01:25:38;12.60;99.90
10278;DHT22;5184;51.376;7.148;2023-05-29T01:28:01;12.50;93.10
10278;DHT22;5184;51.376;7.148;2023-05-29T01:30:28;12.50;99.90
10278;DHT22;5184;51.376;7.148;2023-05-29T01:32:55;12.30;99.90
10278;DHT22;5184;51.376;7.148;2023-05-29T01:35:22;12.30;99.90
10278;DHT22;5184;51.376;7.148;2023-05-29T01:37:49;12.20;99.90
10278;DHT22;5184;51.376;7.148;2023-05-29T01:40:15;12.20;99.90
10278;DHT22;5184;51.376;7.148;2023-05-29T01:42:43;12.10;53.60
10278;DHT22;5184;51.376;7.148;2023-05-29T01:45:10;12.10;1.00
10278;DHT22;5184;51.376;7.148;2023-05-29T01:47:37;12.10;1.00
10278;DHT22;5184;51.376;7.148;2023-05-29T01:50:04;11.90;1.00
10278;DHT22;5184;51.376;7.148;2023-05-29T01:52:31;11.80;1.00
10278;DHT22;5184;51.376;7.148;2023-05-29T01:54:58;11.80;1.00
10278;DHT22;5184;51.376;7.148;2023-05-29T01:57:24;11.80;1.00
10278;DHT22;5184;51.376;7.148;2023-05-29T01:59:51;11.70;1.00
10278;DHT22;5184;51.376;7.148;2023-05-29T02:02:18;11.60;1.00
10278;DHT22;5184;51.376;7.148;2023-05-29T02:04:46;11.50;1.00
10278;DHT22;5184;51.376;7.148;2023-05-29T02:07:13;11.50;1.00
10278;DHT22;5184;51.376;7.148;2023-05-29T02:09:40;11.40;1.00
10278;DHT22;5184;51.376;7.148;2023-05-29T02:12:08;11.40;1.00
10278;DHT22;5184;51.376;7.148;2023-05-29T02:14:35;11.30;1.00
10278;DHT22;5184;51.376;7.148;2023-05-29T02:17:02;11.30;1.00
10278;DHT22;5184;51.376;7.148;2023-05-29T02:19:28;11.30;1.00
10278;DHT22;5184;51.376;7.148;2023-05-29T02:21:55;11.20;1.00
10278;DHT22;5184;51.376;7.148;2023-05-29T02:24:21;11.20;1.00
10278;DHT22;5184;51.376;7.148;2023-05-29T02:26:49;11.20;1.00
10278;DHT22;5184;51.376;7.148;2023-05-29T02:29:16;11.20;1.00
10278;DHT22;5184;51.376;7.148;2023-05-29T02:31:43;11.10;13.10
10278;DHT22;5184;51.376;7.148;2023-05-29T02:34:09;11.00;99.90
10278;DHT22;5184;51.376;7.148;2023-05-29T02:36:36;10.90;99.90
10278;DHT22;5184;51.376;7.148;2023-05-29T02:39:04;10.90;99.90
10278;DHT22;5184;51.376;7.148;2023-05-29T02:41:31;10.90;99.90
10278;DHT22;5184;51.376;7.148;2023-05-29T02:43:57;10.90;99.90
10278;DHT22;5184;51.376;7.148;2023-05-29T02:46:24;10.80;99.90
10278;DHT22;5184;51.376;7.148;2023-05-29T02:48:50;10.80;99.90
10278;DHT22;5184;51.376;7.148;2023-05-29T02:51:17;10.80;99.90
10278;DHT22;5184;51.376;7.148;2023-05-29T02:53:44;10.80;99.90
10278;DHT22;5184;51.376;7.148;2023-05-29T02:56:11;10.80;99.90
10278;DHT22;5184;51.376;7.148;2023-05-29T02:58:38;10.70;99.90
10278;DHT22;5184;51.376;7.148;2023-05-29T03:01:05;10.70;99.90
10278;DHT22;5184;51.376;7.148;2023-05-29T03:03:32;10.30;1.00
10278;DHT22;5184;51.376;7.148;2023-05-29T03:05:59;10.60;1.00
10278;DHT22;5184;51.376;7.148;2023-05-29T03:08:27;10.60;1.00
10278;DHT22;5184;51.376;7.148;2023-05-29T03:10:54;10.60;1.00
10278;DHT22;5184;51.376;7.148;2023-05-29T03:13:20;10.60;1.00
10278;DHT22;5184;51.376;7.148;2023-05-29T03:15:47;10.60;1.00
10278;DHT22;5184;51.376;7.148;2023-05-29T03:18:13;10.60;1.00
10278;DHT22;5184;51.376;7.148;2023-05-29T03:20:40;10.60;1.00
10278;DHT22;5184;51.376;7.148;2023-05-29T03:23:07;10.50;1.00
10278;DHT22;5184;51.376;7.148;2023-05-29T03:25:35;10.50;1.00
10278;DHT22;5184;51.376;7.148;2023-05-29T03:28:02;10.50;1.00
10278;DHT22;5184;51.376;7.148;2023-05-29T03:30:29;10.40;1.00
10278;DHT22;5184;51.376;7.148;2023-05-29T03:35:35;10.40;20.40
10278;DHT22;5184;51.376;7.148;2023-05-29T03:38:02;10.40;1.00
10278;DHT22;5184;51.376;7.148;2023-05-29T03:40:28;10.40;1.00
10278;DHT22;5184;51.376;7.148;2023-05-29T03:42:55;10.40;1.00
10278;DHT22;5184;51.376;7.148;2023-05-29T03:45:22;10.40;51.70
10278;DHT22;5184;51.376;7.148;2023-05-29T03:47:48;10.40;16.80
10278;DHT22;5184;51.376;7.148;2023-05-29T03:50:16;10.30;64.30
10278;DHT22;5184;51.376;7.148;2023-05-29T03:52:42;10.30;52.70
10278;DHT22;5184;51.376;7.148;2023-05-29T03:55:10;10.30;99.90
10278;DHT22;5184;51.376;7.148;2023-05-29T03:57:38;10.30;99.90
10278;DHT22;5184;51.376;7.148;2023-05-29T04:00:08;10.30;99.90
10278;DHT22;5184;51.376;7.148;2023-05-29T04:02:34;10.30;99.90
10278;DHT22;5184;51.376;7.148;2023-05-29T04:05:02;10.30;99.90
10278;DHT22;5184;51.376;7.148;2023-05-29T04:07:28;10.20;99.90
10278;DHT22;5184;51.376;7.148;2023-05-29T04:09:56;10.30;99.90
10278;DHT22;5184;51.376;7.148;2023-05-29T04:12:23;10.30;99.90
10278;DHT22;5184;51.376;7.148;2023-05-29T04:14:50;10.30;99.90
10278;DHT22;5184;51.376;7.148;2023-05-29T04:17:16;10.30;99.90
10278;DHT22;5184;51.376;7.148;2023-05-29T04:19:43;10.30;99.90
10278;DHT22;5184;51.376;7.148;2023-05-29T04:22:10;10.20;99.90
10278;DHT22;5184;51.376;7.148;2023-05-29T04:24:37;10.20;1.00
10278;DHT22;5184;51.376;7.148;2023-05-29T04:27:05;10.30;99.90
10278;DHT22;5184;51.376;7.148;2023-05-29T04:29:31;10.20;99.90
10278;DHT22;5184;51.376;7.148;2023-05-29T04:31:58;10.30;99.90
10278;DHT22;5184;51.376;7.148;2023-05-29T04:34:25;10.30;99.90
10278;DHT22;5184;51.376;7.148;2023-05-29T04:36:51;10.30;1.00
10278;DHT22;5184;51.376;7.148;2023-05-29T04:39:18;10.30;99.90
10278;DHT22;5184;51.376;7.148;2023-05-29T04:41:45;10.40;99.90
10278;DHT22;5184;51.376;7.148;2023-05-29T04:44:12;10.40;99.90
10278;DHT22;5184;51.376;7.148;2023-05-29T04:46:38;10.40;99.90
10278;DHT22;5184;51.376;7.148;2023-05-29T04:49:05;10.40;99.90
10278;DHT22;5184;51.376;7.148;2023-05-29T04:51:32;10.40;99.90
10278;DHT22;5184;51.376;7.148;2023-05-29T04:53:58;10.40;99.90
10278;DHT22;5184;51.376;7.148;2023-05-29T04:56:26;10.10;99.90
10278;DHT22;5184;51.376;7.148;2023-05-29T04:58:52;10.40;99.90
10278;DHT22;5184;51.376;7.148;2023-05-29T05:01:19;10.40;99.90
10278;DHT22;5184;51.376;7.148;2023-05-29T05:03:45;10.50;99.90
10278;DHT22;5184;51.376;7.148;2023-05-29T05:06:12;10.50;40.50
10278;DHT22;5184;51.376;7.148;2023-05-29T05:08:39;10.50;99.90
10278;DHT22;5184;51.376;7.148;2023-05-29T05:11:05;10.60;85.50
10278;DHT22;5184;51.376;7.148;2023-05-29T05:13:33;10.70;1.00
10278;DHT22;5184;51.376;7.148;2023-05-29T05:16:00;10.70;1.00
10278;DHT22;5184;51.376;7.148;2023-05-29T05:18:27;10.60;1.00
10278;DHT22;5184;51.376;7.148;2023-05-29T05:20:53;10.60;1.00
10278;DHT22;5184;51.376;7.148;2023-05-29T05:23:20;10.70;1.00
10278;DHT22;5184;51.376;7.148;2023-05-29T05:25:46;10.80;1.00
10278;DHT22;5184;51.376;7.148;2023-05-29T05:28:13;10.80;1.00
10278;DHT22;5184;51.376;7.148;2023-05-29T05:30:40;11.00;99.90
10278;DHT22;5184;51.376;7.148;2023-05-29T05:33:08;11.00;99.90
10278;DHT22;5184;51.376;7.148;2023-05-29T05:35:35;11.00;99.90
10278;DHT22;5184;51.376;7.148;2023-05-29T05:38:02;11.00;99.90
10278;DHT22;5184;51.376;7.148;2023-05-29T05:40:29;11.00;99.90
10278;DHT22;5184;51.376;7.148;2023-05-29T05:42:56;11.00;99.90
10278;DHT22;5184;51.376;7.148;2023-05-29T05:45:22;11.10;99.90
10278;DHT22;5184;51.376;7.148;2023-05-29T05:47:49;11.10;99.90
10278;DHT22;5184;51.376;7.148;2023-05-29T05:50:15;11.20;75.70
10278;DHT22;5184;51.376;7.148;2023-05-29T05:52:42;11.30;1.00
10278;DHT22;5184;51.376;7.148;2023-05-29T05:55:09;11.30;1.00
10278;DHT22;5184;51.376;7.148;2023-05-29T05:57:35;11.40;1.00
10278;DHT22;5184;51.376;7.148;2023-05-29T06:00:03;11.50;1.00
10278;DHT22;5184;51.376;7.148;2023-05-29T06:02:30;11.40;99.90
10278;DHT22;5184;51.376;7.148;2023-05-29T06:04:57;11.50;99.90
10278;DHT22;5184;51.376;7.148;2023-05-29T06:07:25;11.50;99.90
10278;DHT22;5184;51.376;7.148;2023-05-29T06:09:51;11.50;99.90
10278;DHT22;5184;51.376;7.148;2023-05-29T06:12:18;11.60;99.90
10278;DHT22;5184;51.376;7.148;2023-05-29T06:14:45;11.60;99.90
10278;DHT22;5184;51.376;7.148;2023-05-29T06:17:12;11.70;99.90
10278;DHT22;5184;51.376;7.148;2023-05-29T06:19:39;11.70;99.90
10278;DHT22;5184;51.376;7.148;2023-05-29T06:22:07;11.80;99.90
10278;DHT22;5184;51.376;7.148;2023-05-29T06:24:33;11.80;99.90
10278;DHT22;5184;51.376;7.148;2023-05-29T06:27:00;11.80;99.90
10278;DHT22;5184;51.376;7.148;2023-05-29T06:29:26;11.90;99.90
10278;DHT22;5184;51.376;7.148;2023-05-29T06:31:54;12.00;99.90
10278;DHT22;5184;51.376;7.148;2023-05-29T06:34:21;12.10;45.90
10278;DHT22;5184;51.376;7.148;2023-05-29T06:36:49;12.20;6.60
10278;DHT22;5184;51.376;7.148;2023-05-29T06:39:16;12.20;1.00
10278;DHT22;5184;51.376;7.148;2023-05-29T06:41:42;12.20;1.00
10278;DHT22;5184;51.376;7.148;2023-05-29T06:44:09;12.30;1.00
10278;DHT22;5184;51.376;7.148;2023-05-29T06:46:36;12.40;23.80
10278;DHT22;5184;51.376;7.148;2023-05-29T06:49:02;12.40;1.00
10278;DHT22;5184;51.376;7.148;2023-05-29T06:51:29;12.50;1.00
10278;DHT22;5184;51.376;7.148;2023-05-29T06:53:56;12.60;1.00
10278;DHT22;5184;51.376;7.148;2023-05-29T06:56:24;12.60;1.00
10278;DHT22;5184;51.376;7.148;2023-05-29T06:58:51;12.70;1.00
10278;DHT22;5184;51.376;7.148;2023-05-29T07:01:18;12.60;1.00
10278;DHT22;5184;51.376;7.148;2023-05-29T07:03:46;12.60;1.00
10278;DHT22;5184;51.376;7.148;2023-05-29T07:06:11;12.70;1.00
10278;DHT22;5184;51.376;7.148;2023-05-29T07:08:38;12.90;1.00
10278;DHT22;5184;51.376;7.148;2023-05-29T07:11:05;12.90;1.00
10278;DHT22;5184;51.376;7.148;2023-05-29T07:13:31;13.00;1.00
10278;DHT22;5184;51.376;7.148;2023-05-29T07:15:59;13.00;99.90
10278;DHT22;5184;51.376;7.148;2023-05-29T07:18:26;13.10;99.90
10278;DHT22;5184;51.376;7.148;2023-05-29T07:20:55;13.10;99.90
10278;DHT22;5184;51.376;7.148;2023-05-29T07:23:20;13.10;99.90
10278;DHT22;5184;51.376;7.148;2023-05-29T07:25:46;13.10;99.90
10278;DHT22;5184;51.376;7.148;2023-05-29T07:28:13;13.20;99.90
10278;DHT22;5184;51.376;7.148;2023-05-29T07:30:40;13.30;99.90
10278;DHT22;5184;51.376;7.148;2023-05-29T07:33:07;13.20;99.90
10278;DHT22;5184;51.376;7.148;2023-05-29T07:35:34;13.30;99.90
10278;DHT22;5184;51.376;7.148;2023-05-29T07:38:00;13.40;99.90
10278;DHT22;5184;51.376;7.148;2023-05-29T07:40:27;13.50;99.90
10278;DHT22;5184;51.376;7.148;2023-05-29T07:42:53;13.50;99.90
10278;DHT22;5184;51.376;7.148;2023-05-29T07:45:21;13.60;99.90
10278;DHT22;5184;51.376;7.148;2023-05-29T07:47:48;13.60;99.90
10278;DHT22;5184;51.376;7.148;2023-05-29T07:50:16;13.80;99.90
10278;DHT22;5184;51.376;7.148;2023-05-29T07:52:42;13.70;99.90
10278;DHT22;5184;51.376;7.148;2023-05-29T07:55:10;13.90;80.80
10278;DHT22;5184;51.376;7.148;2023-05-29T07:57:37;14.00;99.90
10278;DHT22;5184;51.376;7.148;2023-05-29T08:00:05;14.10;11.00
10278;DHT22;5184;51.376;7.148;2023-05-29T08:02:32;14.10;9.10
10278;DHT22;5184;51.376;7.148;2023-05-29T08:05:00;14.20;1.00
10278;DHT22;5184;51.376;7.148;2023-05-29T08:07:26;14.20;1.00
10278;DHT22;5184;51.376;7.148;2023-05-29T08:09:53;14.20;1.00
10278;DHT22;5184;51.376;7.148;2023-05-29T08:12:20;14.40;78.00
10278;DHT22;5184;51.376;7.148;2023-05-29T08:14:46;14.50;1.00
10278;DHT22;5184;51.376;7.148;2023-05-29T08:17:13;14.60;1.00
10278;DHT22;5184;51.376;7.148;2023-05-29T08:19:40;14.80;1.00
10278;DHT22;5184;51.376;7.148;2023-05-29T08:22:07;14.80;1.00
10278;DHT22;5184;51.376;7.148;2023-05-29T08:24:35;14.90;1.00
10278;DHT22;5184;51.376;7.148;2023-05-29T08:27:02;15.00;1.00
10278;DHT22;5184;51.376;7.148;2023-05-29T08:29:29;15.00;1.00
10278;DHT22;5184;51.376;7.148;2023-05-29T08:31:55;15.10;1.00
10278;DHT22;5184;51.376;7.148;2023-05-29T08:34:23;15.00;1.00
10278;DHT22;5184;51.376;7.148;2023-05-29T08:36:50;15.00;1.00
10278;DHT22;5184;51.376;7.148;2023-05-29T08:39:17;15.10;1.00
10278;DHT22;5184;51.376;7.148;2023-05-29T08:42:06;15.20;1.00
10278;DHT22;5184;51.376;7.148;2023-05-29T08:44:31;15.20;1.00
10278;DHT22;5184;51.376;7.148;2023-05-29T08:47:00;15.30;1.00
10278;DHT22;5184;51.376;7.148;2023-05-29T08:49:26;15.40;1.00
10278;DHT22;5184;51.376;7.148;2023-05-29T08:52:01;15.40;1.00
10278;DHT22;5184;51.376;7.148;2023-05-29T08:54:19;15.60;99.90
10278;DHT22;5184;51.376;7.148;2023-05-29T08:56:46;15.50;99.90
10278;DHT22;5184;51.376;7.148;2023-05-29T08:59:13;15.70;99.90
10278;DHT22;5184;51.376;7.148;2023-05-29T09:01:40;15.70;99.90
10278;DHT22;5184;51.376;7.148;2023-05-29T09:04:07;15.80;99.90
10278;DHT22;5184;51.376;7.148;2023-05-29T09:06:34;16.00;99.90
10278;DHT22;5184;51.376;7.148;2023-05-29T09:09:00;16.00;99.90
10278;DHT22;5184;51.376;7.148;2023-05-29T09:11:27;16.10;99.90
10278;DHT22;5184;51.376;7.148;2023-05-29T09:13:54;16.30;99.90
10278;DHT22;5184;51.376;7.148;2023-05-29T09:16:21;16.30;99.90
10278;DHT22;5184;51.376;7.148;2023-05-29T09:18:49;16.30;99.90
10278;DHT22;5184;51.376;7.148;2023-05-29T09:21:27;16.30;99.90
10278;DHT22;5184;51.376;7.148;2023-05-29T09:23:58;16.40;99.90
10278;DHT22;5184;51.376;7.148;2023-05-29T09:26:21;16.40;99.90
10278;DHT22;5184;51.376;7.148;2023-05-29T09:28:50;16.50;99.90
10278;DHT22;5184;51.376;7.148;2023-05-29T09:31:17;16.50;99.90
10278;DHT22;5184;51.376;7.148;2023-05-29T09:33:48;16.60;99.90
10278;DHT22;5184;51.376;7.148;2023-05-29T09:36:20;16.60;99.90
10278;DHT22;5184;51.376;7.148;2023-05-29T09:38:46;16.50;80.20
10278;DHT22;5184;51.376;7.148;2023-05-29T09:41:13;16.60;99.90
10278;DHT22;5184;51.376;7.148;2023-05-29T09:43:40;16.70;1.00
10278;DHT22;5184;51.376;7.148;2023-05-29T09:46:07;16.70;1.00
10278;DHT22;5184;51.376;7.148;2023-05-29T09:48:34;16.90;45.40
10278;DHT22;5184;51.376;7.148;2023-05-29T09:51:02;16.90;1.00
10278;DHT22;5184;51.376;7.148;2023-05-29T09:53:29;16.90;1.00
10278;DHT22;5184;51.376;7.148;2023-05-29T09:55:55;17.00;27.10
10278;DHT22;5184;51.376;7.148;2023-05-29T09:58:23;16.90;12.10
10278;DHT22;5184;51.376;7.148;2023-05-29T10:00:49;16.90;10.90
10278;DHT22;5184;51.376;7.148;2023-05-29T10:03:17;17.00;99.90
10278;DHT22;5184;51.376;7.148;2023-05-29T10:05:46;17.10;1.00
10278;DHT22;5184;51.376;7.148;2023-05-29T10:08:13;17.10;16.60
10278;DHT22;5184;51.376;7.148;2023-05-29T10:10:40;17.20;59.50
10278;DHT22;5184;51.376;7.148;2023-05-29T10:13:07;17.30;1.00
10278;DHT22;5184;51.376;7.148;2023-05-29T10:15:33;17.30;1.00
10278;DHT22;5184;51.376;7.148;2023-05-29T10:18:02;17.30;1.00
10278;DHT22;5184;51.376;7.148;2023-05-29T10:20:26;17.20;1.00
10278;DHT22;5184;51.376;7.148;2023-05-29T10:22:53;17.30;1.00
10278;DHT22;5184;51.376;7.148;2023-05-29T10:25:20;17.40;1.00
10278;DHT22;5184;51.376;7.148;2023-05-29T10:27:47;17.70;1.00
10278;DHT22;5184;51.376;7.148;2023-05-29T10:30:21;17.80;1.00
10278;DHT22;5184;51.376;7.148;2023-05-29T10:32:56;17.80;1.00
10278;DHT22;5184;51.376;7.148;2023-05-29T10:35:20;17.80;1.00
10278;DHT22;5184;51.376;7.148;2023-05-29T10:37:52;17.80;1.00
10278;DHT22;5184;51.376;7.148;2023-05-29T10:40:22;17.80;1.00
10278;DHT22;5184;51.376;7.148;2023-05-29T10:42:45;17.80;1.00
10278;DHT22;5184;51.376;7.148;2023-05-29T10:47:39;18.10;1.00
10278;DHT22;5184;51.376;7.148;2023-05-29T10:50:06;18.00;99.90
10278;DHT22;5184;51.376;7.148;2023-05-29T10:52:34;18.00;1.00
10278;DHT22;5184;51.376;7.148;2023-05-29T10:55:01;18.10;1.00
10278;DHT22;5184;51.376;7.148;2023-05-29T10:57:29;18.30;1.00
10278;DHT22;5184;51.376;7.148;2023-05-29T10:59:59;18.40;1.00
10278;DHT22;5184;51.376;7.148;2023-05-29T11:02:25;18.40;1.00
10278;DHT22;5184;51.376;7.148;2023-05-29T11:05:04;18.40;99.90
10278;DHT22;5184;51.376;7.148;2023-05-29T11:07:32;18.40;99.90
10278;DHT22;5184;51.376;7.148;2023-05-29T11:10:10;18.40;99.90
10278;DHT22;5184;51.376;7.148;2023-05-29T11:12:25;18.50;1.00
10278;DHT22;5184;51.376;7.148;2023-05-29T11:14:55;18.60;1.00
10278;DHT22;5184;51.376;7.148;2023-05-29T11:17:32;18.60;1.00
10278;DHT22;5184;51.376;7.148;2023-05-29T11:20:02;18.90;99.90
10278;DHT22;5184;51.376;7.148;2023-05-29T11:22:29;18.90;99.90
10278;DHT22;5184;51.376;7.148;2023-05-29T11:24:54;18.90;99.90
10278;DHT22;5184;51.376;7.148;2023-05-29T11:27:21;19.10;99.90
10278;DHT22;5184;51.376;7.148;2023-05-29T11:29:49;18.90;99.90
10278;DHT22;5184;51.376;7.148;2023-05-29T11:32:17;18.90;99.90
10278;DHT22;5184;51.376;7.148;2023-05-29T11:34:44;18.80;99.90
10278;DHT22;5184;51.376;7.148;2023-05-29T11:37:11;18.80;99.90
10278;DHT22;5184;51.376;7.148;2023-05-29T11:39:37;19.00;99.90
10278;DHT22;5184;51.376;7.148;2023-05-29T11:42:04;19.10;99.90
10278;DHT22;5184;51.376;7.148;2023-05-29T11:44:30;19.20;99.90
10278;DHT22;5184;51.376;7.148;2023-05-29T11:47:06;19.30;99.90
10278;DHT22;5184;51.376;7.148;2023-05-29T11:49:34;19.30;99.90
10278;DHT22;5184;51.376;7.148;2023-05-29T11:52:07;19.30;99.90
10278;DHT22;5184;51.376;7.148;2023-05-29T11:54:33;19.20;99.90
10278;DHT22;5184;51.376;7.148;2023-05-29T11:57:00;19.20;99.90
10278;DHT22;5184;51.376;7.148;2023-05-29T11:59:28;19.20;99.90
10278;DHT22;5184;51.376;7.148;2023-05-29T12:01:54;19.20;99.90
10278;DHT22;5184;51.376;7.148;2023-05-29T12:04:21;19.20;99.90
10278;DHT22;5184;51.376;7.148;2023-05-29T12:06:48;19.40;99.90
10278;DHT22;5184;51.376;7.148;2023-05-29T12:09:25;19.50;99.90
10278;DHT22;5184;51.376;7.148;2023-05-29T12:11:51;19.50;99.90
10278;DHT22;5184;51.376;7.148;2023-05-29T12:14:18;19.60;99.90
10278;DHT22;5184;51.376;7.148;2023-05-29T12:16:44;19.70;99.90
10278;DHT22;5184;51.376;7.148;2023-05-29T12:19:11;19.80;99.90
10278;DHT22;5184;51.376;7.148;2023-05-29T12:21:41;19.70;99.90
10278;DHT22;5184;51.376;7.148;2023-05-29T12:24:09;19.80;99.90
10278;DHT22;5184;51.376;7.148;2023-05-29T12:26:36;19.70;99.90
10278;DHT22;5184;51.376;7.148;2023-05-29T12:29:03;19.70;99.90
10278;DHT22;5184;51.376;7.148;2023-05-29T12:31:33;19.80;99.90
10278;DHT22;5184;51.376;7.148;2023-05-29T12:34:01;19.80;99.90
10278;DHT22;5184;51.376;7.148;2023-05-29T12:36:27;19.80;99.90
10278;DHT22;5184;51.376;7.148;2023-05-29T12:38:53;20.00;94.30
10278;DHT22;5184;51.376;7.148;2023-05-29T12:41:24;20.10;99.90
10278;DHT22;5184;51.376;7.148;2023-05-29T12:43:52;20.30;16.40
10278;DHT22;5184;51.376;7.148;2023-05-29T12:46:18;20.40;99.90
10278;DHT22;5184;51.376;7.148;2023-05-29T12:48:44;20.30;99.90
10278;DHT22;5184;51.376;7.148;2023-05-29T12:51:11;20.40;88.70
10278;DHT22;5184;51.376;7.148;2023-05-29T12:53:38;20.40;1.00
10278;DHT22;5184;51.376;7.148;2023-05-29T12:56:04;20.50;5.00
10278;DHT22;5184;51.376;7.148;2023-05-29T12:58:31;20.90;1.00
10278;DHT22;5184;51.376;7.148;2023-05-29T13:00:59;21.00;1.00
10278;DHT22;5184;51.376;7.148;2023-05-29T13:03:26;21.00;1.00
10278;DHT22;5184;51.376;7.148;2023-05-29T13:05:54;21.00;1.00
10278;DHT22;5184;51.376;7.148;2023-05-29T13:08:21;21.00;1.00
10278;DHT22;5184;51.376;7.148;2023-05-29T13:10:48;21.10;1.00
10278;DHT22;5184;51.376;7.148;2023-05-29T13:13:15;21.00;1.00
10278;DHT22;5184;51.376;7.148;2023-05-29T13:15:41;21.00;1.00
10278;DHT22;5184;51.376;7.148;2023-05-29T13:18:08;21.10;1.00
10278;DHT22;5184;51.376;7.148;2023-05-29T13:20:35;21.00;1.00
10278;DHT22;5184;51.376;7.148;2023-05-29T13:23:03;20.80;1.00
10278;DHT22;5184;51.376;7.148;2023-05-29T13:25:30;20.70;1.00
10278;DHT22;5184;51.376;7.148;2023-05-29T13:27:58;20.60;1.00
10278;DHT22;5184;51.376;7.148;2023-05-29T13:30:25;20.80;1.00
10278;DHT22;5184;51.376;7.148;2023-05-29T13:32:52;20.80;1.00
10278;DHT22;5184;51.376;7.148;2023-05-29T13:35:18;20.90;1.00
10278;DHT22;5184;51.376;7.148;2023-05-29T13:37:45;21.20;1.00
10278;DHT22;5184;51.376;7.148;2023-05-29T13:40:12;21.20;1.00
10278;DHT22;5184;51.376;7.148;2023-05-29T13:42:39;21.20;1.00
10278;DHT22;5184;51.376;7.148;2023-05-29T13:45:06;21.10;1.00
10278;DHT22;5184;51.376;7.148;2023-05-29T13:47:33;21.10;1.00
10278;DHT22;5184;51.376;7.148;2023-05-29T13:49:59;21.00;1.00
10278;DHT22;5184;51.376;7.148;2023-05-29T13:52:26;21.10;1.00
10278;DHT22;5184;51.376;7.148;2023-05-29T13:54:53;21.50;1.00
10278;DHT22;5184;51.376;7.148;2023-05-29T13:57:21;21.60;1.00
10278;DHT22;5184;51.376;7.148;2023-05-29T13:59:48;21.90;1.00
10278;DHT22;5184;51.376;7.148;2023-05-29T14:02:15;21.90;1.00
10278;DHT22;5184;51.376;7.148;2023-05-29T14:04:43;21.80;99.90
10278;DHT22;5184;51.376;7.148;2023-05-29T14:07:10;21.70;1.00
10278;DHT22;5184;51.376;7.148;2023-05-29T14:09:37;21.80;99.90
10278;DHT22;5184;51.376;7.148;2023-05-29T14:12:04;21.70;99.90
10278;DHT22;5184;51.376;7.148;2023-05-29T14:14:32;21.90;99.90
10278;DHT22;5184;51.376;7.148;2023-05-29T14:16:57;21.90;1.00
10278;DHT22;5184;51.376;7.148;2023-05-29T14:19:24;22.20;99.90
10278;DHT22;5184;51.376;7.148;2023-05-29T14:21:51;22.20;99.90
10278;DHT22;5184;51.376;7.148;2023-05-29T14:24:19;22.10;99.90
10278;DHT22;5184;51.376;7.148;2023-05-29T14:26:46;22.20;99.90
10278;DHT22;5184;51.376;7.148;2023-05-29T14:29:13;22.10;99.90
10278;DHT22;5184;51.376;7.148;2023-05-29T14:31:40;22.10;99.90
10278;DHT22;5184;51.376;7.148;2023-05-29T14:34:06;22.10;99.90
10278;DHT22;5184;51.376;7.148;2023-05-29T14:36:32;21.90;99.90
10278;DHT22;5184;51.376;7.148;2023-05-29T14:38:59;21.90;99.90
10278;DHT22;5184;51.376;7.148;2023-05-29T14:41:26;22.20;99.90
10278;DHT22;5184;51.376;7.148;2023-05-29T14:43:54;22.30;99.90
10278;DHT22;5184;51.376;7.148;2023-05-29T14:46:20;22.30;99.90
10278;DHT22;5184;51.376;7.148;2023-05-29T14:48:47;22.40;99.90
10278;DHT22;5184;51.376;7.148;2023-05-29T14:51:13;22.40;99.90
10278;DHT22;5184;51.376;7.148;2023-05-29T14:53:41;22.70;99.90
10278;DHT22;5184;51.376;7.148;2023-05-29T14:56:08;23.20;99.90
10278;DHT22;5184;51.376;7.148;2023-05-29T14:58:35;23.20;99.90
10278;DHT22;5184;51.376;7.148;2023-05-29T15:01:02;23.20;99.90
10278;DHT22;5184;51.376;7.148;2023-05-29T15:03:29;23.20;99.90
10278;DHT22;5184;51.376;7.148;2023-05-29T15:05:55;23.00;99.90
10278;DHT22;5184;51.376;7.148;2023-05-29T15:08:22;22.80;99.90
10278;DHT22;5184;51.376;7.148;2023-05-29T15:10:48;23.00;99.90
10278;DHT22;5184;51.376;7.148;2023-05-29T15:13:16;23.10;99.90
10278;DHT22;5184;51.376;7.148;2023-05-29T15:15:43;23.20;99.90
10278;DHT22;5184;51.376;7.148;2023-05-29T15:18:10;23.20;99.90
10278;DHT22;5184;51.376;7.148;2023-05-29T15:20:36;23.40;99.90
10278;DHT22;5184;51.376;7.148;2023-05-29T15:23:03;23.20;99.90
10278;DHT22;5184;51.376;7.148;2023-05-29T15:25:30;23.20;99.90
10278;DHT22;5184;51.376;7.148;2023-05-29T15:27:56;23.20;99.90
10278;DHT22;5184;51.376;7.148;2023-05-29T15:30:24;23.60;99.90
10278;DHT22;5184;51.376;7.148;2023-05-29T15:32:51;23.60;99.90
10278;DHT22;5184;51.376;7.148;2023-05-29T15:35:17;23.50;99.90
10278;DHT22;5184;51.376;7.148;2023-05-29T15:37:44;23.90;99.90
10278;DHT22;5184;51.376;7.148;2023-05-29T15:40:11;24.10;99.90
10278;DHT22;5184;51.376;7.148;2023-05-29T15:42:38;24.10;99.90
10278;DHT22;5184;51.376;7.148;2023-05-29T15:45:06;24.30;99.90
10278;DHT22;5184;51.376;7.148;2023-05-29T15:47:33;24.20;99.90
10278;DHT22;5184;51.376;7.148;2023-05-29T15:49:59;24.40;99.90
10278;DHT22;5184;51.376;7.148;2023-05-29T15:52:26;24.60;99.90
10278;DHT22;5184;51.376;7.148;2023-05-29T15:54:53;24.90;99.90
10278;DHT22;5184;51.376;7.148;2023-05-29T15:57:20;24.90;99.90